GIRYN EGHR-EGHR
Flight info
| Callsign | GIRYN |
|---|---|
| Flight time | 0h 19m |
| Altitude | 3000 |
| Route | VFR DEPARTURE TO SOUTH |
| Aircraft | P28A/L-V/N |
Departure
| Time | 2026-04-26 08:33 |
|---|---|
| Airport | Goodwood Aerodrome (EGHR) |
Arrival
| Time | 2026-04-26 08:52 |
|---|---|
| Airport | Goodwood Aerodrome (EGHR) |
| Time | Latitude | Longitude | Altitude | Speed | Heading |
|---|---|---|---|---|---|
| 2026-04-26 08:07 | 50.85943 | -0.75841 | 103 ft | 0 kts | 327° |
| 2026-04-26 08:25 | 50.85946 | -0.75844 | 97 ft | 3 kts | 320° |
| 2026-04-26 08:25 | 50.85947 | -0.75884 | 102 ft | 4 kts | 300° |
| 2026-04-26 08:26 | 50.85970 | -0.75918 | 102 ft | 6 kts | 319° |
| 2026-04-26 08:26 | 50.86008 | -0.75965 | 102 ft | 10 kts | 324° |
| 2026-04-26 08:26 | 50.86062 | -0.76010 | 103 ft | 8 kts | 323° |
| 2026-04-26 08:26 | 50.86118 | -0.76075 | 103 ft | 11 kts | 322° |
| 2026-04-26 08:27 | 50.86190 | -0.76162 | 103 ft | 14 kts | 327° |
| 2026-04-26 08:27 | 50.86274 | -0.76239 | 105 ft | 11 kts | 321° |
| 2026-04-26 08:27 | 50.86315 | -0.76316 | 104 ft | 8 kts | 298° |
| 2026-04-26 08:27 | 50.86306 | -0.76343 | 104 ft | 0 kts | 221° |
| 2026-04-26 08:31 | 50.86301 | -0.76350 | 104 ft | 4 kts | 225° |
| 2026-04-26 08:31 | 50.86258 | -0.76373 | 105 ft | 7 kts | 143° |
| 2026-04-26 08:31 | 50.86250 | -0.76362 | 105 ft | 0 kts | 140° |
| 2026-04-26 08:32 | 50.86166 | -0.76248 | 104 ft | 41 kts | 138° |
| 2026-04-26 08:32 | 50.85840 | -0.75815 | 132 ft | 75 kts | 134° |
| 2026-04-26 08:32 | 50.85418 | -0.75293 | 330 ft | 77 kts | 133° |
| 2026-04-26 08:32 | 50.84963 | -0.74817 | 609 ft | 78 kts | 138° |
| 2026-04-26 08:33 | 50.84437 | -0.74440 | 779 ft | 85 kts | 149° |
| 2026-04-26 08:33 | 50.84031 | -0.73857 | 1071 ft | 82 kts | 111° |
| 2026-04-26 08:33 | 50.84021 | -0.72881 | 1144 ft | 95 kts | 82° |
| 2026-04-26 08:33 | 50.84223 | -0.71899 | 1289 ft | 94 kts | 71° |
| 2026-04-26 08:34 | 50.84492 | -0.70957 | 1353 ft | 90 kts | 69° |
| 2026-04-26 08:34 | 50.84799 | -0.70066 | 1380 ft | 95 kts | 64° |
| 2026-04-26 08:34 | 50.85250 | -0.69332 | 1460 ft | 100 kts | 32° |
| 2026-04-26 08:34 | 50.85964 | -0.69183 | 1471 ft | 105 kts | 2° |
| 2026-04-26 08:35 | 50.86659 | -0.69664 | 1409 ft | 117 kts | 329° |
| 2026-04-26 08:35 | 50.87289 | -0.70479 | 1406 ft | 116 kts | 323° |
| 2026-04-26 08:35 | 50.87859 | -0.71367 | 1420 ft | 115 kts | 314° |
| 2026-04-26 08:35 | 50.88367 | -0.72336 | 1403 ft | 113 kts | 310° |
| 2026-04-26 08:36 | 50.88848 | -0.73332 | 1299 ft | 113 kts | 308° |
| 2026-04-26 08:36 | 50.89302 | -0.74341 | 1236 ft | 113 kts | 307° |
| 2026-04-26 08:36 | 50.89720 | -0.75386 | 1188 ft | 110 kts | 303° |
| 2026-04-26 08:36 | 50.90068 | -0.76457 | 1052 ft | 105 kts | 294° |
| 2026-04-26 08:37 | 50.90303 | -0.77488 | 1060 ft | 94 kts | 286° |
| 2026-04-26 08:37 | 50.90419 | -0.78494 | 1061 ft | 92 kts | 263° |
| 2026-04-26 08:37 | 50.90033 | -0.79225 | 1003 ft | 89 kts | 195° |
| 2026-04-26 08:37 | 50.89449 | -0.79402 | 999 ft | 81 kts | 169° |
| 2026-04-26 08:38 | 50.88916 | -0.79216 | 986 ft | 79 kts | 156° |
| 2026-04-26 08:38 | 50.88384 | -0.79008 | 960 ft | 78 kts | 155° |
| 2026-04-26 08:38 | 50.87904 | -0.78658 | 840 ft | 74 kts | 139° |
| 2026-04-26 08:38 | 50.87516 | -0.78171 | 675 ft | 68 kts | 128° |
| 2026-04-26 08:39 | 50.87198 | -0.77670 | 476 ft | 63 kts | 125° |
| 2026-04-26 08:39 | 50.86854 | -0.77217 | 351 ft | 66 kts | 134° |
| 2026-04-26 08:39 | 50.86505 | -0.76745 | 201 ft | 65 kts | 128° |
| 2026-04-26 08:39 | 50.86182 | -0.76280 | 109 ft | 56 kts | 129° |
| 2026-04-26 08:40 | 50.85888 | -0.75871 | 136 ft | 64 kts | 136° |
| 2026-04-26 08:40 | 50.85535 | -0.75448 | 283 ft | 64 kts | 138° |
| 2026-04-26 08:40 | 50.85213 | -0.74999 | 584 ft | 57 kts | 121° |
| 2026-04-26 08:40 | 50.84853 | -0.74482 | 684 ft | 82 kts | 142° |
| 2026-04-26 08:41 | 50.84336 | -0.74002 | 875 ft | 86 kts | 142° |
| 2026-04-26 08:41 | 50.83847 | -0.73433 | 1088 ft | 85 kts | 127° |
| 2026-04-26 08:41 | 50.83789 | -0.72543 | 1210 ft | 84 kts | 77° |
| 2026-04-26 08:41 | 50.83953 | -0.71663 | 1217 ft | 83 kts | 76° |
| 2026-04-26 08:42 | 50.84254 | -0.70857 | 1208 ft | 87 kts | 58° |
| 2026-04-26 08:42 | 50.84649 | -0.70108 | 1219 ft | 89 kts | 56° |
| 2026-04-26 08:42 | 50.85126 | -0.69457 | 1216 ft | 94 kts | 34° |
| 2026-04-26 08:42 | 50.85780 | -0.69446 | 1251 ft | 100 kts | 348° |
| 2026-04-26 08:43 | 50.86391 | -0.69975 | 1280 ft | 104 kts | 329° |
| 2026-04-26 08:43 | 50.86930 | -0.70778 | 1263 ft | 105 kts | 318° |
| 2026-04-26 08:43 | 50.87412 | -0.71667 | 1253 ft | 108 kts | 315° |
| 2026-04-26 08:43 | 50.87877 | -0.72568 | 1269 ft | 104 kts | 312° |
| 2026-04-26 08:44 | 50.88308 | -0.73448 | 1243 ft | 97 kts | 310° |
| 2026-04-26 08:44 | 50.88661 | -0.74342 | 1161 ft | 95 kts | 304° |
| 2026-04-26 08:44 | 50.88919 | -0.75301 | 1134 ft | 94 kts | 291° |
| 2026-04-26 08:44 | 50.89061 | -0.76305 | 1131 ft | 93 kts | 262° |
| 2026-04-26 08:45 | 50.88724 | -0.77107 | 1081 ft | 89 kts | 209° |
| 2026-04-26 08:45 | 50.88197 | -0.77573 | 1023 ft | 84 kts | 193° |
| 2026-04-26 08:45 | 50.87626 | -0.77662 | 898 ft | 86 kts | 171° |
| 2026-04-26 08:45 | 50.87048 | -0.77434 | 601 ft | 85 kts | 150° |
| 2026-04-26 08:46 | 50.86615 | -0.76895 | 266 ft | 73 kts | 131° |
| 2026-04-26 08:46 | 50.86263 | -0.76393 | 110 ft | 62 kts | 131° |
| 2026-04-26 08:46 | 50.85966 | -0.75974 | 103 ft | 66 kts | 134° |
| 2026-04-26 08:46 | 50.85626 | -0.75510 | 244 ft | 65 kts | 125° |
| 2026-04-26 08:47 | 50.85326 | -0.74994 | 396 ft | 65 kts | 126° |
| 2026-04-26 08:47 | 50.85024 | -0.74464 | 625 ft | 68 kts | 121° |
| 2026-04-26 08:47 | 50.84701 | -0.73809 | 744 ft | 83 kts | 122° |
| 2026-04-26 08:47 | 50.84606 | -0.72986 | 960 ft | 81 kts | 79° |
| 2026-04-26 08:48 | 50.84773 | -0.72117 | 1187 ft | 84 kts | 78° |
| 2026-04-26 08:48 | 50.84927 | -0.71151 | 1224 ft | 95 kts | 79° |
| 2026-04-26 08:48 | 50.85112 | -0.70187 | 1341 ft | 90 kts | 66° |
| 2026-04-26 08:48 | 50.85591 | -0.69519 | 1327 ft | 100 kts | 32° |
| 2026-04-26 08:49 | 50.86287 | -0.69378 | 1294 ft | 107 kts | 359° |
| 2026-04-26 08:49 | 50.87011 | -0.69812 | 1287 ft | 114 kts | 332° |
| 2026-04-26 08:49 | 50.87623 | -0.70587 | 1253 ft | 114 kts | 322° |
| 2026-04-26 08:49 | 50.88188 | -0.71409 | 1227 ft | 104 kts | 318° |
| 2026-04-26 08:50 | 50.88634 | -0.72249 | 1198 ft | 98 kts | 308° |
| 2026-04-26 08:50 | 50.88991 | -0.73122 | 1179 ft | 91 kts | 304° |
| 2026-04-26 08:50 | 50.89197 | -0.73689 | 1163 ft | 89 kts | 300° |
| 2026-04-26 08:50 | 50.89370 | -0.74602 | 1131 ft | 88 kts | 262° |
| 2026-04-26 08:51 | 50.88546 | -0.75879 | 968 ft | 80 kts | 209° |
| 2026-04-26 08:51 | 50.88105 | -0.76417 | 946 ft | 81 kts | 209° |
| 2026-04-26 08:51 | 50.87670 | -0.76940 | 801 ft | 76 kts | 206° |
| 2026-04-26 08:52 | 50.87180 | -0.77167 | 633 ft | 70 kts | 174° |
| 2026-04-26 08:52 | 50.86741 | -0.76989 | 349 ft | 65 kts | 143° |
| 2026-04-26 08:52 | 50.86388 | -0.76566 | 144 ft | 60 kts | 129° |
| 2026-04-26 08:52 | 50.86130 | -0.76200 | 104 ft | 42 kts | 134° |
| 2026-04-26 08:53 | 50.85846 | -0.75829 | 174 ft | 59 kts | 139° |
| 2026-04-26 08:53 | 50.85515 | -0.75462 | 338 ft | 58 kts | 142° |
| 2026-04-26 08:53 | 50.85147 | -0.75112 | 495 ft | 63 kts | 146° |
| 2026-04-26 08:53 | 50.84727 | -0.74853 | 653 ft | 70 kts | 154° |
| 2026-04-26 08:54 | 50.84241 | -0.74626 | 776 ft | 78 kts | 160° |
| 2026-04-26 08:54 | 50.83774 | -0.74269 | 1009 ft | 70 kts | 122° |
| 2026-04-26 08:54 | 50.83691 | -0.73490 | 1113 ft | 79 kts | 86° |
| 2026-04-26 08:54 | 50.83768 | -0.72603 | 1186 ft | 83 kts | 84° |
| 2026-04-26 08:55 | 50.83913 | -0.71693 | 1277 ft | 87 kts | 73° |
| 2026-04-26 08:55 | 50.84166 | -0.70849 | 1410 ft | 85 kts | 69° |
| 2026-04-26 08:55 | 50.84506 | -0.70093 | 1556 ft | 89 kts | 57° |
| 2026-04-26 08:55 | 50.84963 | -0.69402 | 1676 ft | 90 kts | 50° |
| 2026-04-26 08:56 | 50.85535 | -0.68967 | 1519 ft | 97 kts | 21° |
| 2026-04-26 08:56 | 50.86212 | -0.68996 | 1370 ft | 101 kts | 358° |
| 2026-04-26 08:56 | 50.86888 | -0.69289 | 1294 ft | 97 kts | 347° |
| 2026-04-26 08:56 | 50.87490 | -0.69746 | 1225 ft | 95 kts | 336° |
| 2026-04-26 08:57 | 50.88039 | -0.70318 | 1224 ft | 94 kts | 330° |
| 2026-04-26 08:57 | 50.88559 | -0.70962 | 1232 ft | 94 kts | 324° |
| 2026-04-26 08:57 | 50.89023 | -0.71691 | 1226 ft | 95 kts | 316° |
| 2026-04-26 08:57 | 50.89433 | -0.72549 | 1220 ft | 97 kts | 308° |
| 2026-04-26 08:58 | 50.89710 | -0.73504 | 1236 ft | 97 kts | 279° |
| 2026-04-26 08:58 | 50.89549 | -0.74494 | 1214 ft | 94 kts | 231° |
| 2026-04-26 08:58 | 50.89048 | -0.75052 | 1211 ft | 86 kts | 194° |
| 2026-04-26 08:58 | 50.88565 | -0.75691 | 1149 ft | 93 kts | 227° |
| 2026-04-26 08:59 | 50.88317 | -0.76643 | 1157 ft | 97 kts | 252° |
| 2026-04-26 08:59 | 50.88157 | -0.77663 | 1163 ft | 92 kts | 249° |
| 2026-04-26 08:59 | 50.87945 | -0.78621 | 1118 ft | 92 kts | 241° |
| 2026-04-26 08:59 | 50.87679 | -0.79506 | 1126 ft | 87 kts | 237° |
| 2026-04-26 09:00 | 50.87377 | -0.80322 | 1141 ft | 86 kts | 230° |
| 2026-04-26 09:00 | 50.87016 | -0.81006 | 1111 ft | 80 kts | 197° |
| 2026-04-26 09:00 | 50.86486 | -0.81214 | 1053 ft | 75 kts | 176° |
| 2026-04-26 09:00 | 50.86010 | -0.81256 | 982 ft | 65 kts | 166° |
| 2026-04-26 09:01 | 50.85591 | -0.81100 | 934 ft | 61 kts | 137° |
| 2026-04-26 09:01 | 50.85375 | -0.80531 | 845 ft | 63 kts | 107° |
| 2026-04-26 09:01 | 50.85305 | -0.79886 | 799 ft | 58 kts | 93° |
| 2026-04-26 09:01 | 50.85272 | -0.79258 | 735 ft | 57 kts | 92° |
| 2026-04-26 09:02 | 50.85264 | -0.78623 | 701 ft | 58 kts | 89° |
| 2026-04-26 09:02 | 50.85322 | -0.77971 | 596 ft | 60 kts | 81° |
| 2026-04-26 09:02 | 50.85488 | -0.77333 | 411 ft | 66 kts | 65° |
| 2026-04-26 09:02 | 50.85703 | -0.76772 | 216 ft | 53 kts | 64° |
| 2026-04-26 09:03 | 50.85885 | -0.76303 | 112 ft | 46 kts | 62° |
| 2026-04-26 09:03 | 50.86020 | -0.75968 | 102 ft | 30 kts | 56° |
| 2026-04-26 09:03 | 50.86071 | -0.75769 | 101 ft | 8 kts | 137° |
| 2026-04-26 09:03 | 50.86047 | -0.75746 | 103 ft | 3 kts | 156° |
| 2026-04-26 09:04 | 50.85999 | -0.75725 | 101 ft | 9 kts | 166° |
| 2026-04-26 09:04 | 50.85916 | -0.75703 | 103 ft | 16 kts | 173° |
| 2026-04-26 09:04 | 50.85827 | -0.75674 | 102 ft | 9 kts | 131° |
| 2026-04-26 09:04 | 50.85821 | -0.75608 | 103 ft | 4 kts | 92° |
| 2026-04-26 09:05 | 50.85822 | -0.75590 | 103 ft | 0 kts | 82° |